Time;durP1;ratioP1;P1;durP2;ratioP2;P2;SDS_P1;SDS_P2;PMS_P1;PMS_P2;Temp;Humidity;BMP_temperature;BMP_pressure;BME280_temperature;BME280_humidity;BME280_pressure;Samples;Min_cycle;Max_cycle;Signal;HPM_P1;HPM_P2
2022/11/09 00:01:33;;;;;;;5.03;2.30;;;12.30;99.90;;;;;;5024742;28;20041;-65
2022/11/09 00:04:03;;;;;;;4.35;2.50;;;12.40;99.90;;;;;;5023515;28;20038;-67
2022/11/09 00:06:30;;;;;;;7.60;2.58;;;12.40;99.90;;;;;;5020505;28;20072;-67
2022/11/09 00:08:57;;;;;;;4.55;2.17;;;12.40;99.90;;;;;;5022482;28;20723;-66
2022/11/09 00:11:23;;;;;;;4.97;2.00;;;12.40;99.90;;;;;;5021535;28;20346;-67
2022/11/09 00:13:49;;;;;;;7.75;2.40;;;12.50;99.90;;;;;;5029256;28;20045;-66
2022/11/09 00:16:17;;;;;;;6.45;2.05;;;12.50;99.90;;;;;;5027320;28;20040;-66
2022/11/09 00:18:46;;;;;;;5.72;2.47;;;12.60;99.90;;;;;;5034319;28;20065;-67
2022/11/09 00:21:15;;;;;;;5.70;2.30;;;12.50;99.90;;;;;;5029234;28;20037;-66
2022/11/09 00:23:40;;;;;;;4.55;2.10;;;12.60;99.90;;;;;;5040869;28;20116;-65
2022/11/09 00:26:08;;;;;;;6.70;2.28;;;12.50;99.90;;;;;;5031244;28;20129;-66
2022/11/09 00:28:34;;;;;;;6.10;2.45;;;12.50;99.90;;;;;;5030348;28;20041;-65
2022/11/09 00:31:09;;;;;;;7.45;2.35;;;12.50;99.90;;;;;;5037248;28;20064;-65
2022/11/09 00:33:35;;;;;;;5.75;2.38;;;12.40;99.90;;;;;;5032425;28;20615;-66
2022/11/09 00:36:06;;;;;;;5.32;2.55;;;12.30;99.90;;;;;;5043641;28;20152;-67
2022/11/09 00:38:37;;;;;;;6.13;2.33;;;12.20;99.90;;;;;;5033795;28;20040;-65
2022/11/09 00:41:03;;;;;;;5.03;2.20;;;12.30;99.90;;;;;;5028253;28;20042;-66
2022/11/09 00:43:29;;;;;;;8.13;2.10;;;12.30;99.90;;;;;;5031596;28;20396;-65
2022/11/09 00:45:55;;;;;;;5.07;2.47;;;12.20;99.90;;;;;;5027084;28;20034;-66
2022/11/09 00:48:21;;;;;;;10.15;2.78;;;12.20;99.90;;;;;;5029876;28;20477;-67
2022/11/09 00:50:54;;;;;;;7.20;2.25;;;12.10;99.90;;;;;;5031701;28;20045;-66
2022/11/09 00:53:21;;;;;;;8.07;2.63;;;12.20;99.90;;;;;;5040242;28;20763;-68
2022/11/09 00:55:57;;;;;;;6.20;2.92;;;12.20;99.90;;;;;;5029975;28;20179;-65
2022/11/09 00:58:24;;;;;;;7.95;2.65;;;12.30;99.90;;;;;;5029350;28;20049;-65
2022/11/09 01:00:50;;;;;;;6.70;2.80;;;12.30;99.90;;;;;;5032369;28;20086;-66
2022/11/09 01:03:16;;;;;;;5.68;2.42;;;12.30;99.90;;;;;;5034812;28;20045;-67
2022/11/09 01:05:42;;;;;;;6.53;2.10;;;12.40;99.90;;;;;;5033065;28;20057;-65
2022/11/09 01:08:07;;;;;;;7.18;2.30;;;12.50;99.90;;;;;;5028967;28;20064;-67
2022/11/09 01:10:33;;;;;;;7.57;2.20;;;12.50;99.90;;;;;;5031673;28;20064;-65
2022/11/09 01:12:59;;;;;;;5.10;2.30;;;12.50;99.90;;;;;;5026998;28;20065;-66
2022/11/09 01:15:25;;;;;;;4.75;2.20;;;12.50;99.90;;;;;;5033799;28;20507;-66
2022/11/09 01:17:51;;;;;;;6.38;2.33;;;12.50;99.90;;;;;;5028735;28;20033;-66
2022/11/09 01:20:16;;;;;;;3.53;2.30;;;12.50;99.90;;;;;;5046883;28;20393;-66
2022/11/09 01:22:42;;;;;;;5.18;2.55;;;12.50;99.90;;;;;;5034757;28;20040;-66
2022/11/09 01:25:08;;;;;;;6.45;2.13;;;12.50;99.90;;;;;;5039443;28;20465;-66
2022/11/09 01:27:34;;;;;;;5.82;2.42;;;12.40;99.90;;;;;;5024987;28;20048;-67
2022/11/09 01:30:00;;;;;;;8.52;2.22;;;12.30;99.90;;;;;;5028704;28;20038;-65
2022/11/09 01:32:26;;;;;;;7.20;2.20;;;12.30;99.90;;;;;;5025029;28;20496;-66
2022/11/09 01:34:51;;;;;;;4.22;2.30;;;12.20;99.90;;;;;;5025537;28;20507;-65
2022/11/09 01:37:17;;;;;;;4.30;1.85;;;12.20;99.90;;;;;;5029224;28;20607;-66
2022/11/09 01:39:43;;;;;;;5.20;2.20;;;12.10;99.90;;;;;;5029229;28;20492;-66
2022/11/09 01:42:08;;;;;;;4.60;2.05;;;12.20;99.90;;;;;;5029859;28;20163;-65
2022/11/09 01:44:36;;;;;;;4.22;2.20;;;12.10;99.90;;;;;;5028953;28;20126;-65
2022/11/09 01:47:31;;;;;;;4.65;2.25;;;12.10;99.90;;;;;;5028180;28;20065;-65
2022/11/09 01:49:59;;;;;;;4.63;2.60;;;12.10;99.90;;;;;;5028926;28;20053;-65
2022/11/09 01:52:38;;;;;;;6.43;2.53;;;12.00;99.90;;;;;;5029279;28;20108;-65
2022/11/09 01:55:16;;;;;;;5.80;2.05;;;11.90;99.90;;;;;;5033205;28;20037;-65
2022/11/09 01:57:55;;;;;;;5.85;2.42;;;11.90;99.90;;;;;;5024393;28;20041;-66
2022/11/09 02:00:20;;;;;;;7.78;2.38;;;11.80;99.90;;;;;;5033083;28;20042;-64
2022/11/09 02:03:07;;;;;;;4.78;2.45;;;11.80;99.90;;;;;;5025165;28;20654;-65
2022/11/09 02:05:36;;;;;;;8.45;2.53;;;11.80;99.90;;;;;;5034861;28;20116;-66
2022/11/09 02:08:05;;;;;;;5.00;2.45;;;11.70;99.90;;;;;;5040160;28;20060;-65
2022/11/09 02:10:43;;;;;;;11.13;3.03;;;11.80;99.90;;;;;;5029875;28;20037;-64
2022/11/09 02:13:12;;;;;;;10.27;2.50;;;11.70;99.90;;;;;;5030213;28;20156;-66
2022/11/09 02:15:38;;;;;;;8.52;2.75;;;11.60;99.90;;;;;;5036710;28;20477;-65
2022/11/09 02:18:05;;;;;;;7.63;2.78;;;11.70;99.90;;;;;;5025702;28;20057;-65
2022/11/09 02:20:43;;;;;;;6.40;2.35;;;11.60;99.90;;;;;;5038918;28;20111;-65
2022/11/09 02:23:10;;;;;;;5.95;2.42;;;11.60;99.90;;;;;;5035605;28;20722;-66
2022/11/09 02:25:35;;;;;;;8.40;2.75;;;11.60;99.90;;;;;;5026391;28;20051;-66
2022/11/09 02:28:01;;;;;;;8.43;2.33;;;11.60;99.90;;;;;;5037166;28;20045;-66
2022/11/09 02:30:26;;;;;;;6.40;2.20;;;11.70;99.90;;;;;;5034327;28;20037;-65
2022/11/09 02:32:52;;;;;;;9.75;2.85;;;11.60;99.90;;;;;;5031895;28;20033;-68
2022/11/09 02:35:18;;;;;;;6.15;2.28;;;11.70;99.90;;;;;;5029735;28;20037;-66
2022/11/09 02:37:48;;;;;;;7.60;2.20;;;11.80;99.90;;;;;;5032353;28;20123;-65
2022/11/09 02:40:23;;;;;;;8.43;2.38;;;11.70;99.90;;;;;;5013043;28;20052;-66
2022/11/09 02:42:48;;;;;;;7.72;2.70;;;11.70;99.90;;;;;;5035819;28;20049;-66
2022/11/09 02:45:14;;;;;;;7.80;2.22;;;11.70;99.90;;;;;;5045026;28;20037;-65
2022/11/09 02:47:39;;;;;;;6.40;2.28;;;11.70;99.90;;;;;;5031981;28;20052;-66
2022/11/09 02:50:05;;;;;;;5.07;2.30;;;11.70;99.90;;;;;;5031403;28;20033;-65
2022/11/09 02:52:31;;;;;;;6.43;2.35;;;11.70;99.90;;;;;;5029407;28;20045;-66
2022/11/09 02:54:56;;;;;;;10.13;2.47;;;11.70;99.90;;;;;;5036393;28;20033;-66
2022/11/09 02:57:22;;;;;;;7.25;2.05;;;11.70;99.90;;;;;;5037572;28;20049;-66
2022/11/09 02:59:47;;;;;;;8.27;2.35;;;11.80;99.90;;;;;;5030711;28;20045;-66
2022/11/09 03:02:13;;;;;;;7.57;2.00;;;11.80;99.90;;;;;;5024965;28;20045;-67
2022/11/09 03:04:38;;;;;;;7.47;2.13;;;11.80;99.90;;;;;;5030856;28;20054;-66
2022/11/09 03:07:04;;;;;;;8.90;2.53;;;11.80;99.90;;;;;;5029682;28;20046;-65
2022/11/09 03:09:30;;;;;;;8.48;2.17;;;11.80;99.90;;;;;;5029158;28;20067;-66
2022/11/09 03:11:55;;;;;;;5.47;2.22;;;11.70;99.90;;;;;;5034840;28;20030;-68
2022/11/09 03:14:21;;;;;;;8.65;2.10;;;11.80;99.90;;;;;;5031486;28;20048;-66
2022/11/09 03:16:46;;;;;;;6.10;2.00;;;11.80;99.90;;;;;;5028473;28;20037;-66
2022/11/09 03:19:12;;;;;;;8.60;2.33;;;11.80;99.90;;;;;;5044296;28;20033;-66
2022/11/09 03:21:37;;;;;;;8.40;2.47;;;11.90;99.90;;;;;;5030759;28;20148;-65
2022/11/09 03:24:03;;;;;;;5.43;2.13;;;11.80;99.90;;;;;;5031122;28;20041;-66
2022/11/09 03:26:29;;;;;;;8.77;2.08;;;11.80;99.90;;;;;;5031676;28;20160;-65
2022/11/09 03:28:54;;;;;;;8.52;1.95;;;11.90;99.90;;;;;;5029340;28;20535;-65
2022/11/09 03:31:20;;;;;;;7.50;2.35;;;11.80;99.90;;;;;;5033638;28;20033;-67
2022/11/09 03:33:45;;;;;;;7.20;1.80;;;11.80;99.90;;;;;;5029751;28;20041;-66
2022/11/09 03:36:11;;;;;;;6.55;1.67;;;11.80;99.90;;;;;;5031145;28;20179;-65
2022/11/09 03:38:36;;;;;;;7.30;2.17;;;11.80;99.90;;;;;;5029792;28;20044;-66
2022/11/09 03:41:02;;;;;;;4.30;1.88;;;11.80;99.90;;;;;;5038576;28;20051;-66
2022/11/09 03:43:28;;;;;;;7.18;1.80;;;11.80;99.90;;;;;;5026661;28;20128;-65
2022/11/09 03:45:54;;;;;;;4.93;1.55;;;11.80;99.90;;;;;;5031840;28;20041;-66
2022/11/09 03:48:20;;;;;;;5.85;2.03;;;11.70;99.90;;;;;;5039875;28;20453;-65
2022/11/09 03:50:46;;;;;;;4.70;1.67;;;11.70;99.90;;;;;;5029527;28;20128;-65
2022/11/09 03:53:12;;;;;;;7.93;1.98;;;11.80;99.90;;;;;;5036166;28;20075;-67
2022/11/09 03:55:38;;;;;;;6.60;2.03;;;11.80;99.90;;;;;;5030669;28;20029;-67
2022/11/09 03:58:05;;;;;;;4.90;1.80;;;11.80;99.90;;;;;;5034951;28;20057;-66
2022/11/09 04:00:30;;;;;;;8.07;2.25;;;11.80;99.90;;;;;;5037971;28;20044;-65
2022/11/09 04:02:56;;;;;;;3.67;1.80;;;11.70;99.90;;;;;;5029004;28;20401;-67
2022/11/09 04:05:21;;;;;;;5.18;2.00;;;11.70;99.90;;;;;;5029311;28;20058;-67
2022/11/09 04:07:49;;;;;;;7.65;2.10;;;11.70;99.90;;;;;;5029365;28;20104;-66
2022/11/09 04:10:15;;;;;;;7.97;2.03;;;11.70;99.90;;;;;;5031415;28;20396;-65
2022/11/09 04:12:41;;;;;;;7.00;1.92;;;11.70;99.90;;;;;;5034606;28;20044;-66
2022/11/09 04:15:07;;;;;;;6.25;1.80;;;11.80;99.90;;;;;;5031202;28;20456;-66
2022/11/09 04:17:33;;;;;;;7.07;2.20;;;11.70;99.90;;;;;;5030242;28;20403;-67
2022/11/09 04:19:58;;;;;;;13.60;2.13;;;11.80;99.90;;;;;;5024430;28;20033;-65
2022/11/09 04:22:24;;;;;;;7.72;2.15;;;11.80;99.90;;;;;;5029791;28;20045;-66
2022/11/09 04:24:49;;;;;;;8.00;2.15;;;11.90;99.90;;;;;;5034122;28;20047;-66
2022/11/09 04:27:15;;;;;;;8.15;2.42;;;11.90;99.90;;;;;;5028511;28;20080;-66
2022/11/09 04:29:40;;;;;;;12.23;2.55;;;11.90;99.90;;;;;;5030557;28;20072;-66
2022/11/09 04:32:06;;;;;;;10.73;2.33;;;11.80;99.90;;;;;;5032686;28;20046;-67
2022/11/09 04:34:31;;;;;;;5.28;2.30;;;11.80;99.90;;;;;;5037291;28;20041;-67
2022/11/09 04:36:57;;;;;;;6.55;2.25;;;11.70;99.90;;;;;;5030423;28;20831;-65
2022/11/09 04:39:22;;;;;;;6.47;2.35;;;11.80;99.90;;;;;;5034752;28;20544;-67
2022/11/09 04:41:48;;;;;;;5.93;2.42;;;11.70;99.90;;;;;;5036800;28;20036;-66
2022/11/09 04:44:13;;;;;;;4.97;2.08;;;11.70;99.90;;;;;;5035658;28;20041;-66
2022/11/09 04:46:39;;;;;;;8.25;2.72;;;11.70;99.90;;;;;;5039032;28;20053;-66
2022/11/09 04:49:05;;;;;;;8.25;2.50;;;11.80;99.90;;;;;;5041858;28;20116;-66
2022/11/09 04:51:30;;;;;;;7.28;2.30;;;11.70;99.90;;;;;;5041224;28;20068;-65
2022/11/09 04:53:56;;;;;;;7.82;2.33;;;11.60;99.90;;;;;;5034659;28;20120;-66
2022/11/09 04:56:21;;;;;;;5.13;2.20;;;11.60;99.90;;;;;;5029413;28;20041;-67
2022/11/09 04:58:48;;;;;;;7.57;2.67;;;11.50;99.90;;;;;;5031583;28;20033;-66
2022/11/09 05:01:14;;;;;;;8.80;2.47;;;11.70;99.90;;;;;;5031015;28;20450;-67
2022/11/09 05:03:40;;;;;;;6.93;2.15;;;11.60;99.90;;;;;;5041894;28;20041;-66
2022/11/09 05:06:50;;;;;;;5.05;2.15;;;11.70;99.90;;;;;;5033702;28;20059;-66
2022/11/09 05:08:52;;;;;;;4.32;2.10;;;11.70;99.90;;;;;;5024182;28;20056;-67
2022/11/09 05:11:18;;;;;;;7.90;2.67;;;11.70;99.90;;;;;;5032221;28;20037;-67
2022/11/09 05:13:44;;;;;;;9.13;2.65;;;11.80;99.90;;;;;;5031655;28;20473;-66
2022/11/09 05:16:09;;;;;;;9.10;2.47;;;11.70;99.90;;;;;;5028226;28;20135;-67
2022/11/09 05:18:35;;;;;;;10.15;2.25;;;11.80;99.90;;;;;;5027707;28;20033;-66
2022/11/09 05:21:01;;;;;;;10.35;2.33;;;11.70;99.90;;;;;;5029642;28;20040;-67
2022/11/09 05:26:11;;;;;;;8.10;2.50;;;11.90;99.90;;;;;;5025705;28;20948;-66
2022/11/09 05:28:37;;;;;;;8.15;2.38;;;12.00;99.90;;;;;;5029636;28;20036;-66
2022/11/09 05:31:03;;;;;;;5.32;2.00;;;12.00;99.90;;;;;;5027981;28;20045;-66
2022/11/09 05:33:29;;;;;;;7.47;2.45;;;12.10;99.90;;;;;;5031496;28;20117;-67
2022/11/09 05:35:54;;;;;;;8.15;2.50;;;12.20;99.90;;;;;;5031775;28;20444;-67
2022/11/09 05:38:21;;;;;;;8.52;2.70;;;12.20;99.90;;;;;;5035858;28;20091;-66
2022/11/09 05:40:47;;;;;;;8.80;2.15;;;12.20;99.90;;;;;;5037872;28;20125;-67
2022/11/09 05:43:13;;;;;;;8.85;2.25;;;12.20;99.90;;;;;;5031833;28;20049;-67
2022/11/09 05:45:39;;;;;;;9.63;2.30;;;12.10;99.90;;;;;;5034724;28;20091;-66
2022/11/09 05:48:05;;;;;;;6.15;2.22;;;12.10;99.90;;;;;;5029874;28;20037;-67
2022/11/09 05:50:30;;;;;;;9.13;2.22;;;12.00;99.90;;;;;;5028359;28;20046;-66
2022/11/09 05:52:59;;;;;;;5.07;2.25;;;12.00;99.90;;;;;;5031274;28;20029;-65
2022/11/09 05:55:24;;;;;;;6.30;2.45;;;12.00;99.90;;;;;;5028990;28;20042;-67
2022/11/09 05:57:50;;;;;;;8.48;2.13;;;12.00;99.90;;;;;;5031854;28;20045;-66
2022/11/09 06:00:16;;;;;;;5.53;2.17;;;11.90;99.90;;;;;;5038059;28;20042;-67
2022/11/09 06:02:41;;;;;;;5.95;1.73;;;11.80;99.90;;;;;;5033278;28;20045;-66
2022/11/09 06:05:07;;;;;;;6.18;2.47;;;11.70;99.90;;;;;;5031535;28;20060;-66
2022/11/09 06:07:33;;;;;;;6.88;2.22;;;11.70;99.90;;;;;;5048630;28;20400;-65
2022/11/09 06:09:59;;;;;;;8.57;2.13;;;11.80;99.90;;;;;;5028696;28;20044;-67
2022/11/09 06:12:24;;;;;;;4.15;2.10;;;11.70;99.90;;;;;;5038360;28;20061;-67
2022/11/09 06:14:50;;;;;;;9.10;2.50;;;11.70;99.90;;;;;;5040736;28;20033;-66
2022/11/09 06:17:16;;;;;;;5.07;2.47;;;11.60;99.90;;;;;;5034959;28;20137;-67
2022/11/09 06:19:41;;;;;;;8.38;2.22;;;11.60;99.90;;;;;;5033894;28;20033;-67
2022/11/09 06:22:07;;;;;;;9.32;2.22;;;11.70;99.90;;;;;;5042507;28;20040;-66
2022/11/09 06:24:32;;;;;;;8.07;2.10;;;11.60;99.90;;;;;;5031055;28;20095;-67
2022/11/09 06:26:58;;;;;;;7.78;2.20;;;11.60;99.90;;;;;;5032093;28;20041;-66
2022/11/09 06:29:23;;;;;;;5.97;1.92;;;11.60;99.90;;;;;;5032439;28;20061;-65
2022/11/09 06:31:50;;;;;;;9.13;2.40;;;11.60;99.90;;;;;;5036545;28;20033;-67
2022/11/09 06:34:15;;;;;;;5.70;1.75;;;11.70;99.90;;;;;;5031904;28;20099;-66
2022/11/09 06:36:42;;;;;;;7.13;2.20;;;11.60;99.90;;;;;;5031589;28;20521;-66
2022/11/09 06:39:07;;;;;;;6.72;2.13;;;11.60;99.90;;;;;;5033380;28;20045;-68
2022/11/09 06:41:33;;;;;;;5.30;2.10;;;11.50;99.90;;;;;;5033198;28;20041;-67
2022/11/09 06:43:59;;;;;;;5.00;2.08;;;11.50;99.90;;;;;;5016592;28;20056;-67
2022/11/09 06:46:25;;;;;;;5.93;2.00;;;11.50;99.90;;;;;;5032864;28;20060;-67
2022/11/09 06:48:50;;;;;;;5.40;1.90;;;11.50;99.90;;;;;;5033545;28;20120;-65
2022/11/09 06:51:16;;;;;;;8.30;2.10;;;11.50;99.90;;;;;;5033209;28;20037;-67
2022/11/09 06:53:41;;;;;;;8.05;1.98;;;11.50;99.90;;;;;;5036301;28;20049;-66
2022/11/09 06:56:07;;;;;;;6.72;1.92;;;11.40;99.90;;;;;;5035523;28;20047;-66
2022/11/09 06:58:33;;;;;;;8.02;2.17;;;11.40;99.90;;;;;;5035332;28;20042;-66
2022/11/09 07:00:59;;;;;;;7.32;1.95;;;11.40;99.90;;;;;;5038299;28;20041;-65
2022/11/09 07:03:25;;;;;;;10.32;1.80;;;11.40;99.90;;;;;;5037651;28;20087;-67
2022/11/09 07:05:52;;;;;;;9.88;2.20;;;11.40;99.90;;;;;;5030361;28;20049;-65
2022/11/09 07:08:18;;;;;;;5.70;1.42;;;11.30;99.90;;;;;;5036415;28;20056;-66
2022/11/09 07:10:44;;;;;;;11.77;2.38;;;11.20;99.90;;;;;;5040395;28;20656;-66
2022/11/09 07:13:11;;;;;;;10.57;2.25;;;11.30;99.90;;;;;;5040004;28;20088;-66
2022/11/09 07:15:37;;;;;;;9.95;1.80;;;11.20;99.90;;;;;;5045430;28;20072;-67
2022/11/09 07:18:07;;;;;;;7.53;1.88;;;11.30;99.90;;;;;;5045026;28;20037;-66
2022/11/09 07:20:32;;;;;;;11.00;2.33;;;11.20;99.90;;;;;;5033777;28;20076;-67
2022/11/09 07:22:58;;;;;;;7.85;2.05;;;11.20;99.90;;;;;;5029120;28;20072;-67
2022/11/09 07:25:26;;;;;;;5.78;1.95;;;11.30;99.90;;;;;;5028405;28;20045;-66
2022/11/09 07:27:51;;;;;;;8.00;1.90;;;11.30;99.90;;;;;;5033665;28;20088;-66
2022/11/09 07:30:17;;;;;;;6.47;1.95;;;11.30;99.90;;;;;;5034812;28;20056;-65
2022/11/09 07:32:43;;;;;;;7.13;1.92;;;11.30;99.90;;;;;;5033316;28;20092;-67
2022/11/09 07:35:09;;;;;;;7.72;2.22;;;11.40;99.90;;;;;;5040623;28;20072;-67
2022/11/09 07:37:34;;;;;;;6.03;1.77;;;11.30;99.90;;;;;;5040960;28;20120;-66
2022/11/09 07:40:00;;;;;;;5.40;1.92;;;11.40;99.90;;;;;;5030233;28;20033;-65
2022/11/09 07:42:25;;;;;;;7.47;1.85;;;11.40;99.90;;;;;;5031264;28;21060;-67
2022/11/09 07:44:51;;;;;;;8.30;2.00;;;11.40;99.90;;;;;;5031407;28;20698;-67
2022/11/09 07:47:18;;;;;;;5.70;2.22;;;11.50;99.90;;;;;;5032773;28;20152;-66
2022/11/09 07:49:44;;;;;;;10.45;2.33;;;11.50;99.90;;;;;;5028837;28;20091;-67
2022/11/09 07:52:10;;;;;;;8.00;2.25;;;11.50;99.90;;;;;;5035436;28;20045;-65
2022/11/09 07:54:37;;;;;;;7.10;2.00;;;11.50;99.90;;;;;;5040167;28;20102;-66
2022/11/09 07:57:03;;;;;;;10.73;2.50;;;11.60;99.90;;;;;;5032700;28;20477;-66
2022/11/09 07:59:30;;;;;;;10.63;2.40;;;11.60;99.90;;;;;;5029960;28;20039;-66
2022/11/09 08:01:56;;;;;;;11.10;2.13;;;11.60;99.90;;;;;;5035631;28;20440;-67
2022/11/09 08:04:22;;;;;;;5.60;2.17;;;11.60;99.90;;;;;;5030711;28;20480;-67
2022/11/09 08:06:50;;;;;;;6.28;2.10;;;11.60;99.90;;;;;;5033855;28;20120;-66
2022/11/09 08:09:15;;;;;;;8.60;1.98;;;11.70;99.90;;;;;;5052420;28;20045;-65
2022/11/09 08:11:41;;;;;;;11.40;2.13;;;11.70;99.90;;;;;;5042143;28;20112;-66
2022/11/09 08:14:07;;;;;;;9.68;2.40;;;11.70;99.90;;;;;;5037146;28;20542;-68
2022/11/09 08:16:32;;;;;;;8.85;2.00;;;11.80;99.90;;;;;;5038676;28;20099;-67
2022/11/09 08:18:58;;;;;;;13.05;2.58;;;11.80;99.90;;;;;;5030844;28;20041;-67
2022/11/09 08:21:23;;;;;;;9.30;2.40;;;11.90;99.90;;;;;;5026940;28;20061;-66
2022/11/09 08:23:49;;;;;;;14.32;2.50;;;12.00;99.90;;;;;;5029578;28;20469;-68
2022/11/09 08:26:15;;;;;;;11.63;2.70;;;12.00;99.90;;;;;;5038589;28;20447;-66
2022/11/09 08:28:41;;;;;;;9.60;2.38;;;12.00;99.90;;;;;;5029463;28;20140;-67
2022/11/09 08:31:07;;;;;;;10.32;2.78;;;12.10;99.90;;;;;;5031276;28;20041;-68
2022/11/09 08:33:39;;;;;;;14.07;2.55;;;12.20;99.90;;;;;;5035080;28;20069;-66
2022/11/09 08:36:12;;;;;;;7.18;2.42;;;12.20;99.90;;;;;;5014306;28;20045;-65
2022/11/09 08:38:38;;;;;;;10.73;2.55;;;12.30;99.90;;;;;;5028681;28;20083;-67
2022/11/09 08:41:04;;;;;;;12.63;3.10;;;12.30;99.90;;;;;;5049492;28;20037;-66
2022/11/09 08:43:30;;;;;;;10.52;2.58;;;12.40;99.90;;;;;;5037351;28;20535;-66
2022/11/09 08:45:55;;;;;;;10.40;2.72;;;12.40;99.90;;;;;;5047056;28;20048;-68
2022/11/09 08:48:21;;;;;;;6.57;2.13;;;12.40;99.90;;;;;;5034487;28;20689;-66
2022/11/09 08:50:52;;;;;;;6.80;2.00;;;12.50;99.90;;;;;;5040466;28;20040;-66
2022/11/09 08:53:17;;;;;;;12.90;2.75;;;12.50;99.90;;;;;;5043454;28;20041;-67
2022/11/09 08:55:43;;;;;;;8.45;2.58;;;12.60;99.90;;;;;;5040516;28;20044;-66
2022/11/09 08:58:09;;;;;;;11.05;2.47;;;12.60;99.90;;;;;;5034120;28;20041;-69
2022/11/09 09:00:35;;;;;;;14.75;2.55;;;12.70;99.90;;;;;;5040401;28;20075;-66
2022/11/09 09:03:05;;;;;;;6.95;2.83;;;12.70;99.90;;;;;;5032891;28;20068;-67
2022/11/09 09:05:31;;;;;;;9.23;2.75;;;12.80;99.90;;;;;;5036942;28;20144;-67
2022/11/09 09:07:58;;;;;;;9.85;2.78;;;12.80;99.90;;;;;;5047719;28;20447;-66
2022/11/09 09:10:24;;;;;;;5.57;2.42;;;12.90;99.90;;;;;;5021258;28;20056;-67
2022/11/09 09:12:50;;;;;;;13.57;2.92;;;12.90;99.90;;;;;;5033934;28;20025;-68
2022/11/09 09:15:15;;;;;;;9.68;2.67;;;12.90;99.90;;;;;;5039391;28;20049;-67
2022/11/09 09:17:41;;;;;;;11.40;3.17;;;13.00;99.90;;;;;;5035314;28;20047;-66
2022/11/09 09:20:07;;;;;;;14.57;3.05;;;13.00;99.90;;;;;;5025393;28;20059;-67
2022/11/09 09:22:32;;;;;;;9.85;2.40;;;13.10;99.90;;;;;;5031291;28;20043;-66
2022/11/09 09:24:58;;;;;;;10.05;2.40;;;13.10;99.90;;;;;;5032889;28;20055;-65
2022/11/09 09:27:24;;;;;;;9.30;2.60;;;13.20;99.90;;;;;;5032230;28;20037;-68
2022/11/09 09:29:49;;;;;;;10.85;2.80;;;13.20;99.90;;;;;;5021951;28;20033;-66
2022/11/09 09:32:15;;;;;;;10.13;3.30;;;13.30;99.90;;;;;;5000909;28;20064;-66
2022/11/09 09:34:40;;;;;;;13.10;2.83;;;13.30;99.90;;;;;;5003502;28;20041;-66
2022/11/09 09:37:06;;;;;;;10.35;2.83;;;13.30;99.90;;;;;;5031044;28;20037;-68
2022/11/09 09:39:31;;;;;;;8.93;2.58;;;13.30;99.90;;;;;;5045246;28;20051;-67
2022/11/09 09:42:06;;;;;;;10.65;2.42;;;13.30;99.90;;;;;;5029708;28;20091;-66
2022/11/09 09:44:52;;;;;;;10.52;2.45;;;13.30;99.90;;;;;;5043281;28;20059;-65
2022/11/09 09:47:44;;;;;;;14.10;3.13;;;13.30;99.90;;;;;;5043620;28;20056;-68
2022/11/09 09:50:36;;;;;;;9.45;3.08;;;13.30;99.90;;;;;;5035168;28;23256;-67
2022/11/09 09:53:22;;;;;;;9.27;2.83;;;13.30;99.90;;;;;;5029835;28;20120;-67
2022/11/09 09:55:59;;;;;;;8.45;2.88;;;13.40;99.90;;;;;;5030979;28;20474;-68
2022/11/09 09:58:26;;;;;;;14.38;3.20;;;13.30;99.90;;;;;;5025393;28;20049;-66
2022/11/09 10:01:02;;;;;;;9.60;3.28;;;13.30;99.90;;;;;;5041168;28;20102;-67
2022/11/09 10:03:28;;;;;;;10.30;2.70;;;13.30;99.90;;;;;;5044282;28;20087;-67
2022/11/09 10:06:31;;;;;;;8.30;3.20;;;13.40;99.90;;;;;;5031675;28;20536;-68
2022/11/09 10:09:05;;;;;;;10.32;3.78;;;13.50;99.90;;;;;;5042773;28;20167;-68
2022/11/09 10:12:15;;;;;;;12.35;2.97;;;13.60;99.90;;;;;;5041552;28;20107;-66
2022/11/09 10:15:02;;;;;;;9.93;3.53;;;13.70;99.90;;;;;;5024685;28;20061;-66
2022/11/09 10:17:39;;;;;;;10.45;2.65;;;13.80;99.90;;;;;;5047112;28;20090;-67
2022/11/09 10:20:14;;;;;;;7.75;2.72;;;13.80;99.90;;;;;;5029167;28;20041;-65
2022/11/09 10:23:23;;;;;;;9.73;2.90;;;13.70;99.90;;;;;;5029071;28;20045;-65
2022/11/09 10:26:01;;;;;;;10.02;2.90;;;13.70;99.90;;;;;;5037484;28;20111;-67
2022/11/09 10:28:29;;;;;;;4.97;2.42;;;13.70;99.90;;;;;;5031895;28;20501;-67
2022/11/09 10:30:57;;;;;;;12.77;3.28;;;13.70;99.90;;;;;;5043116;28;20091;-66
2022/11/09 10:33:23;;;;;;;9.85;3.20;;;13.70;99.90;;;;;;5046943;28;20080;-67
2022/11/09 10:36:20;;;;;;;11.80;3.00;;;13.70;99.90;;;;;;5042422;28;20448;-68
2022/11/09 10:38:49;;;;;;;10.40;2.78;;;13.80;99.90;;;;;;5037336;28;20055;-67
2022/11/09 10:41:22;;;;;;;8.07;2.67;;;13.80;99.90;;;;;;5039657;28;20041;-68
2022/11/09 10:43:48;;;;;;;13.20;3.00;;;13.80;99.90;;;;;;5034186;28;20132;-67
2022/11/09 10:46:14;;;;;;;10.23;2.80;;;13.80;99.90;;;;;;5034201;28;20120;-69
2022/11/09 10:48:39;;;;;;;6.55;2.35;;;13.80;99.90;;;;;;5034047;28;20033;-67
2022/11/09 10:51:25;;;;;;;9.73;2.83;;;13.70;99.90;;;;;;5038454;28;20048;-65
2022/11/09 10:54:13;;;;;;;16.95;2.90;;;13.80;99.90;;;;;;5045195;28;20033;-66
2022/11/09 10:56:44;;;;;;;10.73;2.92;;;13.90;99.90;;;;;;5034262;28;20488;-67
2022/11/09 10:59:34;;;;;;;10.27;3.08;;;13.90;99.90;;;;;;5034488;28;20091;-66
2022/11/09 11:02:00;;;;;;;9.52;2.90;;;13.90;99.90;;;;;;5032225;28;20045;-67
2022/11/09 11:04:26;;;;;;;11.38;3.10;;;13.90;99.90;;;;;;5046728;28;20053;-67
2022/11/09 11:06:51;;;;;;;11.32;3.50;;;13.90;99.90;;;;;;5048223;28;20072;-67
2022/11/09 11:09:21;;;;;;;11.30;3.10;;;13.90;99.90;;;;;;5052583;28;20048;-67
2022/11/09 11:11:47;;;;;;;11.95;2.80;;;14.00;99.90;;;;;;5053227;28;20423;-66
2022/11/09 11:14:31;;;;;;;9.15;3.13;;;14.20;99.90;;;;;;5050089;28;20049;-65
2022/11/09 11:16:56;;;;;;;11.30;2.78;;;14.30;99.90;;;;;;5052540;28;20041;-67
2022/11/09 11:19:35;;;;;;;12.43;2.75;;;14.40;99.90;;;;;;5044462;28;20502;-66
2022/11/09 11:22:20;;;;;;;9.90;3.25;;;14.50;99.90;;;;;;5040448;28;20045;-66
2022/11/09 11:24:57;;;;;;;11.40;2.80;;;14.40;99.90;;;;;;5036282;28;20045;-67
2022/11/09 11:27:45;;;;;;;11.88;3.17;;;14.50;99.90;;;;;;5048127;28;20045;-68
2022/11/09 11:30:18;;;;;;;11.65;2.67;;;14.50;99.90;;;;;;5052700;28;20513;-68
2022/11/09 11:32:44;;;;;;;7.82;3.33;;;14.50;99.90;;;;;;5045552;28;20037;-68
2022/11/09 11:35:14;;;;;;;10.10;2.58;;;14.50;99.90;;;;;;5049631;28;20112;-68
2022/11/09 11:37:50;;;;;;;10.65;2.55;;;14.60;99.90;;;;;;5048549;28;20041;-66
2022/11/09 11:40:31;;;;;;;11.75;2.75;;;14.60;99.90;;;;;;5040443;28;20041;-68
2022/11/09 11:43:16;;;;;;;9.57;2.38;;;14.70;99.90;;;;;;5044537;28;20546;-67
2022/11/09 11:45:57;;;;;;;13.88;2.35;;;14.70;99.90;;;;;;5047612;28;20148;-66
2022/11/09 11:48:50;;;;;;;12.95;3.08;;;14.70;99.90;;;;;;5052400;28;20171;-66
2022/11/09 11:51:19;;;;;;;8.85;2.42;;;14.70;99.90;;;;;;5060704;28;20101;-66
2022/11/09 11:54:01;;;;;;;7.47;2.40;;;14.60;99.90;;;;;;5050667;28;20040;-67
2022/11/09 11:56:41;;;;;;;11.05;2.75;;;14.50;99.90;;;;;;5070257;28;20087;-67
2022/11/09 11:59:36;;;;;;;8.15;2.47;;;14.50;99.90;;;;;;5060102;28;20106;-67
2022/11/09 12:02:31;;;;;;;9.73;1.95;;;14.40;99.90;;;;;;5015267;28;20513;-68
2022/11/09 12:05:16;;;;;;;7.88;2.70;;;14.40;99.90;;;;;;5035034;28;20049;-67
2022/11/09 12:08:09;;;;;;;8.73;2.20;;;14.30;99.90;;;;;;5038247;28;20056;-67
2022/11/09 12:11:03;;;;;;;9.52;2.20;;;14.30;99.90;;;;;;5038611;28;20539;-66
2022/11/09 12:13:54;;;;;;;10.05;2.15;;;14.30;99.90;;;;;;5042495;28;20045;-66
2022/11/09 12:16:34;;;;;;;10.77;2.60;;;14.40;99.90;;;;;;5052496;28;20095;-67
2022/11/09 12:19:28;;;;;;;;;;;14.40;99.90;;;;;;5051333;28;20033;-67
2022/11/09 12:22:19;;;;;;;7.70;3.05;;;14.60;99.90;;;;;;5037670;28;19921;-68
2022/11/09 12:25:01;;;;;;;13.35;2.45;;;14.80;99.90;;;;;;5036730;28;20084;-68
2022/11/09 12:28:03;;;;;;;12.93;2.10;;;14.80;99.90;;;;;;5031354;28;20517;-68
2022/11/09 12:30:56;;;;;;;6.80;2.42;;;14.70;99.90;;;;;;5031949;28;20077;-66
2022/11/09 12:33:46;;;;;;;11.95;2.53;;;14.60;99.90;;;;;;5043611;28;20818;-66
2022/11/09 12:36:18;;;;;;;4.88;2.20;;;14.50;99.90;;;;;;5018899;28;20114;-68
2022/11/09 12:39:00;;;;;;;7.63;2.60;;;14.50;99.90;;;;;;5032858;28;20773;-66
2022/11/09 12:41:32;;;;;;;10.68;2.80;;;14.30;99.90;;;;;;5035888;28;20420;-67
2022/11/09 12:44:13;;;;;;;11.23;2.55;;;14.00;99.90;;;;;;5030472;28;20047;-68
2022/11/09 12:46:45;;;;;;;10.05;2.20;;;13.80;99.90;;;;;;5033064;28;20073;-67
2022/11/09 12:49:26;;;;;;;7.22;2.22;;;13.70;99.90;;;;;;5041607;28;20037;-67
2022/11/09 12:51:54;;;;;;;7.07;2.45;;;13.70;99.90;;;;;;5051269;28;20041;-68
2022/11/09 12:54:20;;;;;;;6.95;2.05;;;13.80;99.90;;;;;;5040005;28;20041;-67
2022/11/09 12:56:57;;;;;;;7.82;2.40;;;13.80;99.90;;;;;;5040124;28;20451;-67
2022/11/09 12:59:25;;;;;;;11.32;2.20;;;13.90;99.90;;;;;;5046008;28;20045;-67
2022/11/09 13:01:54;;;;;;;8.88;2.50;;;13.90;99.90;;;;;;5044100;28;20033;-67